createdAt,value
2023-03-20T00:00:34.262Z,11.46
2023-03-20T00:03:02.532Z,11.43
2023-03-20T00:05:31.996Z,11.43
2023-03-20T00:08:00.136Z,11.41
2023-03-20T00:10:36.937Z,11.43
2023-03-20T00:13:06.618Z,11.40
2023-03-20T00:15:38.551Z,11.40
2023-03-20T00:18:16.556Z,11.37
2023-03-20T00:20:44.506Z,11.35
2023-03-20T00:23:12.390Z,11.33
2023-03-20T00:25:43.237Z,11.35
2023-03-20T00:28:38.998Z,11.33
2023-03-20T00:31:15.260Z,11.30
2023-03-20T00:33:43.173Z,11.29
2023-03-20T00:36:11.233Z,11.28
2023-03-20T00:38:41.416Z,11.28
2023-03-20T00:41:23.189Z,11.30
2023-03-20T00:43:53.351Z,11.26
2023-03-20T00:46:21.295Z,11.26
2023-03-20T00:48:49.881Z,11.27
2023-03-20T00:51:18.304Z,11.25
2023-03-20T00:53:46.141Z,11.25
2023-03-20T00:56:31.959Z,11.27
2023-03-20T00:59:01.470Z,11.24
2023-03-20T01:01:30.286Z,11.23
2023-03-20T01:03:58.154Z,11.24
2023-03-20T01:06:25.975Z,11.23
2023-03-20T01:08:53.854Z,11.23
2023-03-20T01:11:24.876Z,11.24
2023-03-20T01:13:54.194Z,11.23
2023-03-20T01:16:24.487Z,11.23
2023-03-20T01:18:52.856Z,11.20
2023-03-20T01:21:21.852Z,11.21
2023-03-20T01:23:51.267Z,11.22
2023-03-20T01:26:25.154Z,11.22
2023-03-20T01:28:54.404Z,11.21
2023-03-20T01:31:22.324Z,11.17
2023-03-20T01:33:50.440Z,11.17
2023-03-20T01:36:22.559Z,11.18
2023-03-20T01:38:56.818Z,11.17
2023-03-20T01:41:27.566Z,11.15
2023-03-20T01:43:56.790Z,11.14
2023-03-20T01:46:26.595Z,11.13
2023-03-20T01:49:10.318Z,11.12
2023-03-20T01:51:38.196Z,11.09
2023-03-20T01:54:16.382Z,11.10
2023-03-20T01:56:57.689Z,11.07
2023-03-20T01:59:30.682Z,11.08
2023-03-20T02:01:59.363Z,11.06
2023-03-20T02:04:32.100Z,11.06
2023-03-20T02:07:08.841Z,11.05
2023-03-20T02:09:41.098Z,11.02
2023-03-20T02:12:14.410Z,11.02
2023-03-20T02:14:45.306Z,11.02
2023-03-20T02:17:22.543Z,11.00
2023-03-20T02:20:08.092Z,11.01
2023-03-20T02:23:09.068Z,10.99
2023-03-20T02:26:13.664Z,10.71
2023-03-20T02:29:16.828Z,10.90
2023-03-20T02:32:21.785Z,10.92
2023-03-20T02:35:06.456Z,10.92
2023-03-20T02:37:59.557Z,10.91
2023-03-20T02:40:34.976Z,10.87
2023-03-20T02:43:10.108Z,10.88
2023-03-20T02:45:46.825Z,10.88
2023-03-20T02:48:28.640Z,10.86
2023-03-20T02:51:02.090Z,10.84
2023-03-20T02:53:48.614Z,10.83
2023-03-20T02:56:23.379Z,10.79
2023-03-20T02:58:56.065Z,10.80
2023-03-20T03:01:31.748Z,10.78
2023-03-20T03:04:03.741Z,10.78
2023-03-20T03:06:33.456Z,10.75
2023-03-20T03:09:07.076Z,10.77
2023-03-20T03:11:40.075Z,10.76
2023-03-20T03:14:09.198Z,10.74
2023-03-20T03:16:39.451Z,10.75
2023-03-20T03:19:11.128Z,10.75
2023-03-20T03:21:41.502Z,10.74
2023-03-20T03:24:39.965Z,10.74
2023-03-20T03:27:18.486Z,10.72
2023-03-20T03:29:52.454Z,10.69
2023-03-20T03:32:27.369Z,10.68
2023-03-20T03:34:56.654Z,10.65
2023-03-20T03:37:35.282Z,10.65
2023-03-20T03:40:14.223Z,10.64
2023-03-20T03:42:50.723Z,10.63
2023-03-20T03:45:24.620Z,10.62
2023-03-20T03:47:57.925Z,10.61
2023-03-20T03:50:30.936Z,10.58
2023-03-20T03:53:05.945Z,10.59
2023-03-20T03:55:40.583Z,10.58
2023-03-20T03:58:15.980Z,10.57
2023-03-20T04:00:47.968Z,10.55
2023-03-20T04:03:17.011Z,10.54
2023-03-20T04:05:47.372Z,10.55
2023-03-20T04:08:16.430Z,10.55
2023-03-20T04:10:45.614Z,10.56
2023-03-20T04:13:13.468Z,10.54
2023-03-20T04:15:41.636Z,10.55
2023-03-20T04:18:15.579Z,10.54
2023-03-20T04:20:44.452Z,10.54
2023-03-20T04:23:12.246Z,10.52
2023-03-20T04:25:40.487Z,10.52
2023-03-20T04:28:11.601Z,10.52
2023-03-20T04:30:56.282Z,10.51
2023-03-20T04:33:36.015Z,10.48
2023-03-20T04:36:21.748Z,10.47
2023-03-20T04:38:51.008Z,10.47
2023-03-20T04:41:21.171Z,10.46
2023-03-20T04:43:54.297Z,10.46
2023-03-20T04:46:23.210Z,10.45
2023-03-20T04:48:51.243Z,10.44
2023-03-20T04:51:20.049Z,10.44
2023-03-20T04:53:52.409Z,10.41
2023-03-20T04:56:20.299Z,10.42
2023-03-20T04:58:49.973Z,10.42
2023-03-20T05:01:23.276Z,10.42
2023-03-20T05:03:52.081Z,10.39
2023-03-20T05:06:19.947Z,10.39
2023-03-20T05:08:48.022Z,10.39
2023-03-20T05:11:18.890Z,10.37
2023-03-20T05:14:06.788Z,10.34
2023-03-20T05:17:14.151Z,10.34
2023-03-20T05:20:00.464Z,10.31
2023-03-20T05:22:50.291Z,10.32
2023-03-20T05:25:35.064Z,10.27
2023-03-20T05:28:23.336Z,10.25
2023-03-20T05:31:11.981Z,10.23
2023-03-20T05:34:05.329Z,10.23
2023-03-20T05:36:56.673Z,10.19
2023-03-20T05:39:32.014Z,10.21
2023-03-20T05:42:13.598Z,10.19
2023-03-20T05:44:59.793Z,10.17
2023-03-20T05:47:42.899Z,9.93
2023-03-20T05:50:26.173Z,10.14
2023-03-20T05:53:07.420Z,10.12
2023-03-20T05:56:01.409Z,10.13
2023-03-20T05:58:42.275Z,10.13
2023-03-20T06:01:28.545Z,10.11
2023-03-20T06:04:12.364Z,10.11
2023-03-20T06:07:07.585Z,10.10
2023-03-20T06:09:37.043Z,10.10
2023-03-20T06:12:09.933Z,10.09
2023-03-20T06:14:38.546Z,10.09
2023-03-20T06:17:08.961Z,10.09
2023-03-20T06:19:36.821Z,10.09
2023-03-20T06:22:04.644Z,10.11
2023-03-20T06:24:35.415Z,10.12
2023-03-20T06:27:03.387Z,10.10
2023-03-20T06:29:31.326Z,10.11
2023-03-20T06:32:12.331Z,10.11
2023-03-20T06:34:40.168Z,10.10
2023-03-20T06:37:08.559Z,10.11
2023-03-20T06:39:37.874Z,10.13
2023-03-20T06:42:07.755Z,10.13
2023-03-20T06:44:37.358Z,10.12
2023-03-20T06:47:15.706Z,10.12
2023-03-20T06:49:45.897Z,10.12
2023-03-20T06:52:17.577Z,10.14
2023-03-20T06:54:52.184Z,10.13
2023-03-20T06:57:20.411Z,10.11
2023-03-20T06:59:48.294Z,10.11
2023-03-20T07:02:16.289Z,10.11
2023-03-20T07:04:44.561Z,10.11
2023-03-20T07:07:12.695Z,10.11
2023-03-20T07:09:42.294Z,10.11
2023-03-20T07:12:15.023Z,10.14
2023-03-20T07:14:44.175Z,10.12
2023-03-20T07:17:16.810Z,10.11
2023-03-20T07:19:45.247Z,10.13
2023-03-20T07:22:22.596Z,10.17
2023-03-20T07:24:51.893Z,10.14
2023-03-20T07:27:23.249Z,10.17
2023-03-20T07:29:54.849Z,10.15
2023-03-20T07:32:24.119Z,10.16
2023-03-20T07:34:53.385Z,10.17
2023-03-20T07:37:21.702Z,10.16
2023-03-20T07:39:58.893Z,10.17
2023-03-20T07:42:32.558Z,10.16
2023-03-20T07:45:09.360Z,10.18
2023-03-20T07:47:37.496Z,10.18
2023-03-20T07:50:08.289Z,10.19
2023-03-20T07:52:36.587Z,10.20
2023-03-20T07:55:04.857Z,10.20
2023-03-20T07:57:34.604Z,10.22
2023-03-20T08:00:08.848Z,10.22
2023-03-20T08:02:42.341Z,10.20
2023-03-20T08:05:10.811Z,10.21
2023-03-20T08:07:38.776Z,10.21
2023-03-20T08:10:07.484Z,10.22
2023-03-20T08:12:36.956Z,10.23
2023-03-20T08:15:05.674Z,10.23
2023-03-20T08:17:33.533Z,10.22
2023-03-20T08:20:01.753Z,10.22
2023-03-20T08:22:29.505Z,10.23
2023-03-20T08:24:57.336Z,10.23
2023-03-20T08:27:25.498Z,10.24
2023-03-20T08:29:54.828Z,10.27
2023-03-20T08:32:22.550Z,10.26
2023-03-20T08:34:50.490Z,10.28
2023-03-20T08:37:19.742Z,10.28
2023-03-20T08:39:47.882Z,10.29
2023-03-20T08:42:16.316Z,10.30
2023-03-20T08:44:45.051Z,10.30
2023-03-20T08:47:14.171Z,10.35
2023-03-20T08:49:43.199Z,10.35
2023-03-20T08:52:11.164Z,10.37
2023-03-20T08:54:39.087Z,10.39
2023-03-20T08:57:07.040Z,10.41
2023-03-20T08:59:34.868Z,10.42
2023-03-20T09:02:02.720Z,10.44
2023-03-20T09:04:32.008Z,10.47
2023-03-20T09:07:01.260Z,10.45
2023-03-20T09:09:29.507Z,10.47
2023-03-20T09:11:57.895Z,10.46
2023-03-20T09:14:26.840Z,10.46
2023-03-20T09:16:54.931Z,10.44
2023-03-20T09:19:23.004Z,10.43
2023-03-20T09:21:52.162Z,10.44
2023-03-20T09:24:19.967Z,10.43
2023-03-20T09:26:47.864Z,10.42
2023-03-20T09:29:15.807Z,10.43
2023-03-20T09:31:44.399Z,10.41
2023-03-20T09:34:12.554Z,10.41
2023-03-20T09:36:40.854Z,10.41
2023-03-20T09:39:10.100Z,10.45
2023-03-20T09:41:53.150Z,10.43
2023-03-20T09:44:40.375Z,10.45
2023-03-20T09:47:20.943Z,10.45
2023-03-20T09:50:00.249Z,10.43
2023-03-20T09:52:32.114Z,10.43
2023-03-20T09:55:08.063Z,10.42
2023-03-20T09:57:40.706Z,10.43
2023-03-20T10:00:13.950Z,10.43
2023-03-20T10:02:49.076Z,10.46
2023-03-20T10:05:24.223Z,10.49
2023-03-20T10:07:53.650Z,10.51
2023-03-20T10:10:28.779Z,10.51
2023-03-20T10:13:07.203Z,10.54
2023-03-20T10:15:44.751Z,10.55
2023-03-20T10:18:21.672Z,10.55
2023-03-20T10:20:56.683Z,10.56
2023-03-20T10:23:34.678Z,10.56
2023-03-20T10:26:11.899Z,10.57
2023-03-20T10:28:45.713Z,10.57
2023-03-20T10:31:33.336Z,10.59
2023-03-20T10:34:15.106Z,10.61
2023-03-20T10:36:55.850Z,10.62
2023-03-20T10:39:36.093Z,10.62
2023-03-20T10:42:14.830Z,10.64
2023-03-20T10:44:48.384Z,10.60
2023-03-20T10:47:20.040Z,10.58
2023-03-20T10:49:51.825Z,10.57
2023-03-20T10:52:23.610Z,10.55
2023-03-20T10:54:56.598Z,10.54
2023-03-20T10:57:26.314Z,10.27
2023-03-20T10:59:57.083Z,10.47
2023-03-20T11:02:29.980Z,10.51
2023-03-20T11:04:58.058Z,10.23
2023-03-20T11:07:28.588Z,10.46
2023-03-20T11:10:16.577Z,10.49
2023-03-20T11:12:48.387Z,10.49
2023-03-20T11:15:22.310Z,10.49
2023-03-20T11:17:58.288Z,10.48
2023-03-20T11:20:27.950Z,10.46
2023-03-20T11:23:00.608Z,10.46
2023-03-20T11:25:35.462Z,10.43
2023-03-20T11:28:39.072Z,10.35
2023-03-20T11:31:16.570Z,10.39
2023-03-20T11:33:46.238Z,10.38
2023-03-20T11:36:24.343Z,10.41
2023-03-20T11:38:54.471Z,10.39
2023-03-20T11:41:27.429Z,10.41
2023-03-20T11:43:56.773Z,10.40
2023-03-20T11:46:25.998Z,10.40
2023-03-20T11:49:06.957Z,10.43
2023-03-20T11:51:38.176Z,10.40
2023-03-20T11:54:09.025Z,10.40
2023-03-20T11:56:37.751Z,10.40
2023-03-20T11:59:15.818Z,10.41
2023-03-20T12:01:47.232Z,10.39
2023-03-20T12:04:17.352Z,10.39
2023-03-20T12:06:54.975Z,10.42
2023-03-20T12:09:32.801Z,10.42
2023-03-20T12:12:03.707Z,10.39
2023-03-20T12:14:39.849Z,10.42
2023-03-20T12:17:31.372Z,10.42
2023-03-20T12:20:04.812Z,10.39
2023-03-20T12:22:37.434Z,10.39
2023-03-20T12:25:17.807Z,10.37
2023-03-20T12:27:51.455Z,10.37
2023-03-20T12:30:29.484Z,10.39
2023-03-20T12:33:03.941Z,10.37
2023-03-20T12:35:34.686Z,10.37
2023-03-20T12:38:02.771Z,10.37
2023-03-20T12:40:45.465Z,10.39
2023-03-20T12:43:16.346Z,10.36
2023-03-20T12:45:55.744Z,10.38
2023-03-20T12:48:55.498Z,10.37
2023-03-20T12:51:32.252Z,10.36
2023-03-20T12:54:15.166Z,10.39
2023-03-20T12:57:00.238Z,10.38
2023-03-20T12:59:36.468Z,10.39
2023-03-20T13:02:20.074Z,10.44
2023-03-20T13:05:10.409Z,10.44
2023-03-20T13:07:53.962Z,10.45
2023-03-20T13:10:23.515Z,10.44
2023-03-20T13:13:05.480Z,10.46
2023-03-20T13:15:46.808Z,10.45
2023-03-20T13:18:22.189Z,10.46
2023-03-20T13:20:53.014Z,10.46
2023-03-20T13:23:30.270Z,10.48
2023-03-20T13:26:09.623Z,10.48
2023-03-20T13:28:43.935Z,10.47
2023-03-20T13:31:22.044Z,10.49
2023-03-20T13:33:56.862Z,10.49
2023-03-20T13:36:49.925Z,10.50
2023-03-20T13:39:23.829Z,10.50
2023-03-20T13:41:53.478Z,10.52
2023-03-20T13:44:27.823Z,10.54
2023-03-20T13:47:01.069Z,10.54
2023-03-20T13:49:37.576Z,10.57
2023-03-20T13:52:14.422Z,10.59
2023-03-20T13:55:00.899Z,10.60
2023-03-20T13:57:49.530Z,10.60
2023-03-20T14:00:28.844Z,10.62
2023-03-20T14:03:19.228Z,10.62
2023-03-20T14:05:48.865Z,10.63
2023-03-20T14:08:32.333Z,10.65
2023-03-20T14:11:32.543Z,10.65
2023-03-20T14:14:08.902Z,10.64
2023-03-20T14:16:37.160Z,10.65
2023-03-20T14:19:17.425Z,10.68
2023-03-20T14:21:48.721Z,10.67
2023-03-20T14:24:19.642Z,10.68
2023-03-20T14:26:51.155Z,10.69
2023-03-20T14:29:38.297Z,10.70
2023-03-20T14:32:32.813Z,10.69
2023-03-20T14:35:20.344Z,10.69
2023-03-20T14:38:06.782Z,10.73
2023-03-20T14:40:40.430Z,10.72
2023-03-20T14:43:18.944Z,10.73
2023-03-20T14:45:53.146Z,10.74
2023-03-20T14:48:31.989Z,10.76
2023-03-20T14:51:20.773Z,10.75
2023-03-20T14:53:57.033Z,10.76
2023-03-20T14:56:34.284Z,10.78
2023-03-20T14:59:05.511Z,10.76
2023-03-20T15:01:58.414Z,10.75
2023-03-20T15:04:33.912Z,10.77
2023-03-20T15:07:04.586Z,10.77
2023-03-20T15:09:38.842Z,10.80
2023-03-20T15:12:07.469Z,10.77
2023-03-20T15:14:42.438Z,10.80
2023-03-20T15:17:19.951Z,10.80
2023-03-20T15:19:50.312Z,10.79
2023-03-20T15:22:20.304Z,10.80
2023-03-20T15:24:57.851Z,10.82
2023-03-20T15:27:29.772Z,10.80
2023-03-20T15:29:58.809Z,10.78
2023-03-20T15:32:26.840Z,10.79
2023-03-20T15:34:54.926Z,10.80
2023-03-20T15:37:25.957Z,10.81
2023-03-20T15:39:59.195Z,10.80
2023-03-20T15:42:28.005Z,10.80
2023-03-20T15:44:57.017Z,10.82
2023-03-20T15:47:26.235Z,10.82
2023-03-20T15:49:56.841Z,10.83
2023-03-20T15:52:32.424Z,10.83
2023-03-20T15:55:06.196Z,10.84
2023-03-20T15:57:37.500Z,10.84
2023-03-20T16:00:09.146Z,10.85
2023-03-20T16:02:38.370Z,10.85
2023-03-20T16:05:13.521Z,10.87
2023-03-20T16:07:42.225Z,10.84
2023-03-20T16:10:23.085Z,10.87
2023-03-20T16:12:54.478Z,10.86
2023-03-20T16:15:25.611Z,10.86
2023-03-20T16:17:56.229Z,10.87
2023-03-20T16:20:27.832Z,10.87
2023-03-20T16:23:01.166Z,10.87
2023-03-20T16:25:30.661Z,10.88
2023-03-20T16:27:59.805Z,10.89
2023-03-20T16:30:32.635Z,10.88
2023-03-20T16:33:02.772Z,10.85
2023-03-20T16:35:35.008Z,10.88
2023-03-20T16:38:04.377Z,10.85
2023-03-20T16:40:35.747Z,10.87
2023-03-20T16:43:08.582Z,10.85
2023-03-20T16:45:37.411Z,10.82
2023-03-20T16:48:32.166Z,10.82
2023-03-20T16:51:11.521Z,10.81
2023-03-20T16:53:45.651Z,10.80
2023-03-20T16:56:17.849Z,10.79
2023-03-20T16:58:46.855Z,10.77
2023-03-20T17:01:20.123Z,10.79
2023-03-20T17:03:52.262Z,10.78
2023-03-20T17:06:39.459Z,10.75
2023-03-20T17:09:20.852Z,10.77
2023-03-20T17:11:52.751Z,10.76
2023-03-20T17:14:20.787Z,10.73
2023-03-20T17:16:48.841Z,10.75
2023-03-20T17:19:18.665Z,10.77
2023-03-20T17:21:47.703Z,10.75
2023-03-20T17:24:17.012Z,10.76
2023-03-20T17:26:48.512Z,10.76
2023-03-20T17:29:17.745Z,10.76
2023-03-20T17:31:46.034Z,10.74
2023-03-20T17:34:15.800Z,10.75
2023-03-20T17:36:43.865Z,10.74
2023-03-20T17:39:18.882Z,10.76
2023-03-20T17:41:47.474Z,10.73
2023-03-20T17:44:16.836Z,10.73
2023-03-20T17:46:57.367Z,10.72
2023-03-20T17:49:28.012Z,10.72
2023-03-20T17:51:56.448Z,10.71
2023-03-20T17:54:24.365Z,10.71
2023-03-20T17:56:52.191Z,10.71
2023-03-20T17:59:21.471Z,10.72
2023-03-20T18:01:49.366Z,10.71
2023-03-20T18:04:17.264Z,10.69
2023-03-20T18:06:47.094Z,10.70
2023-03-20T18:09:16.058Z,10.70
2023-03-20T18:11:44.044Z,10.67
2023-03-20T18:14:12.407Z,10.70
2023-03-20T18:16:41.929Z,10.70
2023-03-20T18:19:15.843Z,10.71
2023-03-20T18:21:43.812Z,10.69
2023-03-20T18:24:11.698Z,10.69
2023-03-20T18:26:39.691Z,10.69
2023-03-20T18:29:07.636Z,10.69
2023-03-20T18:31:35.652Z,10.68
2023-03-20T18:34:05.277Z,10.69
2023-03-20T18:36:33.494Z,10.69
2023-03-20T18:39:01.491Z,10.68
2023-03-20T18:41:29.597Z,10.68
2023-03-20T18:43:57.682Z,10.68
2023-03-20T18:46:27.083Z,10.69
2023-03-20T18:48:55.682Z,10.68
2023-03-20T18:51:25.962Z,10.69
2023-03-20T18:53:54.045Z,10.67
2023-03-20T18:56:25.343Z,10.69
2023-03-20T18:58:54.350Z,10.69
2023-03-20T19:01:22.627Z,10.67
2023-03-20T19:03:53.673Z,10.68
2023-03-20T19:06:23.744Z,10.68
2023-03-20T19:08:53.698Z,10.69
2023-03-20T19:11:22.059Z,10.66
2023-03-20T19:13:52.245Z,10.67
2023-03-20T19:16:25.600Z,10.69
2023-03-20T19:18:54.743Z,10.67
2023-03-20T19:21:26.166Z,10.68
2023-03-20T19:23:56.943Z,10.68
2023-03-20T19:26:27.063Z,10.68
2023-03-20T19:28:56.325Z,10.67
2023-03-20T19:31:25.035Z,10.66
2023-03-20T19:33:53.167Z,10.66
2023-03-20T19:36:25.118Z,10.67
2023-03-20T19:38:53.020Z,10.63
2023-03-20T19:41:22.276Z,10.66
2023-03-20T19:43:54.043Z,10.65
2023-03-20T19:46:39.275Z,10.65
2023-03-20T19:49:10.948Z,10.64
2023-03-20T19:51:38.938Z,10.64
2023-03-20T19:54:07.437Z,10.64
2023-03-20T19:56:36.902Z,10.64
2023-03-20T19:59:06.106Z,10.64
2023-03-20T20:01:34.226Z,10.64
2023-03-20T20:04:02.145Z,10.63
2023-03-20T20:06:32.599Z,10.62
2023-03-20T20:09:01.009Z,10.62
2023-03-20T20:11:29.329Z,10.60
2023-03-20T20:14:08.478Z,10.62
2023-03-20T20:16:39.597Z,10.60
2023-03-20T20:19:08.047Z,10.59
2023-03-20T20:22:19.429Z,10.60
2023-03-20T20:24:24.323Z,10.58
2023-03-20T20:26:59.670Z,10.59
2023-03-20T20:29:32.714Z,10.59
2023-03-20T20:32:01.390Z,10.58
2023-03-20T20:40:07.263Z,10.57
2023-03-20T20:42:37.022Z,10.57
2023-03-20T20:45:08.454Z,10.59
2023-03-20T20:47:36.646Z,10.56
2023-03-20T20:50:05.371Z,10.57
2023-03-20T20:52:39.176Z,10.57
2023-03-20T20:55:22.188Z,10.57
2023-03-20T20:57:51.764Z,10.54
2023-03-20T21:00:27.447Z,10.57
2023-03-20T21:02:57.640Z,10.55
2023-03-20T21:05:26.962Z,10.55
2023-03-20T21:07:54.799Z,10.54
2023-03-20T21:10:23.243Z,10.55
2023-03-20T21:12:59.103Z,10.55
2023-03-20T21:15:28.933Z,10.56
2023-03-20T21:18:01.741Z,10.54
2023-03-20T21:20:30.455Z,10.55
2023-03-20T21:22:58.311Z,10.55
2023-03-20T21:25:39.242Z,10.55
2023-03-20T21:28:08.755Z,10.53
2023-03-20T21:30:44.247Z,10.56
2023-03-20T21:33:18.942Z,10.52
2023-03-20T21:35:46.935Z,10.54
2023-03-20T21:39:01.884Z,10.55
2023-03-20T21:41:09.077Z,10.57
2023-03-20T21:43:36.937Z,10.55
2023-03-20T21:57:55.796Z,10.54
2023-03-20T22:03:01.599Z,10.54
2023-03-20T22:14:56.859Z,10.50
2023-03-20T22:20:27.536Z,10.51
2023-03-20T22:25:56.032Z,10.49
2023-03-20T22:34:24.128Z,10.49
2023-03-20T22:37:27.696Z,10.51
2023-03-20T22:42:49.080Z,10.49
2023-03-20T22:45:01.775Z,10.49
2023-03-20T22:47:32.388Z,10.51
2023-03-20T22:50:00.336Z,10.50
2023-03-20T22:52:42.019Z,10.52
2023-03-20T22:55:17.001Z,10.51
2023-03-20T22:57:56.181Z,10.50
2023-03-20T23:00:31.783Z,10.50
2023-03-20T23:03:13.673Z,10.52
2023-03-20T23:05:43.765Z,10.49
2023-03-20T23:08:13.314Z,10.52
2023-03-20T23:10:44.405Z,10.51
2023-03-20T23:13:12.499Z,10.51
2023-03-20T23:15:40.365Z,10.50
2023-03-20T23:18:09.524Z,10.49
2023-03-20T23:20:37.553Z,10.50
2023-03-20T23:23:05.675Z,10.50
2023-03-20T23:25:41.851Z,10.52
2023-03-20T23:28:10.950Z,10.51
2023-03-20T23:30:48.082Z,10.51
2023-03-20T23:33:19.742Z,10.49
2023-03-20T23:35:48.804Z,10.50
2023-03-20T23:38:17.570Z,10.49
2023-03-20T23:40:51.394Z,10.51
2023-03-20T23:43:19.538Z,10.49
2023-03-20T23:45:47.861Z,10.50
2023-03-20T23:48:15.970Z,10.50
2023-03-20T23:50:52.700Z,10.49
2023-03-20T23:53:22.063Z,10.48
2023-03-20T23:55:53.686Z,10.51
2023-03-20T23:58:23.422Z,10.50
